Flight Track Log - Related Links

Times and Time Zones

All times are in EDT time to prevent confusion due to time zone crossing. See the ASQ4905 flight status page for this flight to view local times or setup timezone preferences in your user account.

Time Position Orientation Groundspeed Altitude Reporting Facility
EDT Latitude Longitude Course Direction KTS MPH feet Rate Location/Type
Thu 10:40:56 PM 42.1961 -83.3600 229° Southwest 171 197 1,400  Level Cleveland Center
Thu 10:41:26 PM 42.1794 -83.3858 229° Southwest 187 215 2,200 1,440 Climbing Cleveland Center
Thu 10:42:11 PM 42.1539 -83.4311 233° Southwest 227 261 3,200 1,791 Climbing Cleveland Center
Thu 10:42:33 PM 42.1356 -83.4642 233° Southwest 261 300 4,200 2,516 Climbing Cleveland Center
Thu 10:43:13 PM 42.1311 -83.5244 264° West 268 308 5,800 2,700 Climbing Cleveland Center
Thu 10:43:33 PM 42.1450 -83.5556 301° West 272 313 6,900 2,262 Climbing Cleveland Center
Thu 10:44:14 PM 42.1708 -83.6108 302° West 273 314 8,100 2,459 Climbing Cleveland Center
Thu 10:44:34 PM 42.1839 -83.6458 297° West 284 327 9,400 2,226 Climbing Cleveland Center
Thu 10:45:16 PM 42.2119 -83.7067 302° West 285 328 10,400 1,574 Climbing Cleveland Center
Thu 10:45:35 PM 42.2300 -83.7511 299° West 329 379 11,000 1,574 Climbing Cleveland Center
Thu 10:46:17 PM 42.2603 -83.8150 303° West 323 372 12,000 1,269 Climbing Cleveland Center
Thu 10:47:19 PM 42.3119 -83.9314 301° West 349 402 13,200 1,415 Climbing Cleveland Center
Thu 10:48:20 PM 42.3661 -84.0539 301° West 374 430 14,900 1,610 Climbing Cleveland Center
Thu 10:49:22 PM 42.4211 -84.1786 301° West 381 438 16,500 1,366 Climbing Cleveland Center
Thu 10:50:23 PM 42.4319 -84.3283 276° West 397 457 17,700 1,463 Climbing Cleveland Center
Thu 10:51:25 PM 42.4369 -84.5114 272° West 406 467 19,500 1,512 Climbing Cleveland Center
Thu 10:52:26 PM 42.4414 -84.6656 272° West 409 471 20,800 1,268 Climbing Cleveland Center
Thu 10:53:28 PM 42.4436 -84.8028 271° West 411 473 22,100 1,317 Climbing Cleveland Center
Thu 10:54:29 PM 42.4478 -84.9581 272° West 413 475 23,500 1,377 Climbing Cleveland Center
Thu 10:55:30 PM 42.4506 -85.1478 271° West 419 482 24,900 1,268 Climbing Cleveland Center
Thu 10:56:32 PM 42.4542 -85.3067 272° West 420 483 26,100 1,171 Climbing Cleveland Center
Thu 10:57:33 PM 42.4569 -85.4653 271° West 420 483 27,300 1,230 Climbing Cleveland Center
Thu 10:58:34 PM 42.4589 -85.6236 271° West 420 483 28,600 1,082 Climbing Cleveland Center
Thu 10:59:35 PM 42.4622 -85.7808 272° West 420 483 29,500 878 Climbing Cleveland Center
Thu 11:00:37 PM 42.4642 -85.9403 271° West 419 482 30,400 829 Climbing Cleveland Center
Thu 11:01:38 PM 42.4653 -86.1011 271° West 422 486 31,200 787 Climbing Cleveland Center
Thu 11:02:39 PM 42.4469 -86.2600 261° West 425 489 32,000 820 Climbing Cleveland Center
Thu 11:03:57 PM 42.4175 -86.4833 260° West 424 488 33,100 814 Climbing Chicago Center
Thu 11:04:59 PM 42.3981 -86.6392 260° West 422 486 33,900 439 Climbing Chicago Center
Thu 11:06:00 PM 42.3811 -86.7869 261° West 423 487 34,000 49 Climbing Chicago Center
Thu 11:07:02 PM 42.3617 -86.9433 260° West 424 488 34,000  Level Chicago Center
Thu 11:08:03 PM 42.3383 -87.0972 258° West 419 482 34,000  Level Chicago Center
Thu 11:09:04 PM 42.2703 -87.2678 242° Southwest 427 491 34,000  Level Chicago Center
Thu 11:10:06 PM 42.2053 -87.4044 237° Southwest 432 497 34,000  Level Chicago Center
Thu 11:11:07 PM 42.1394 -87.5422 237° Southwest 434 499 34,000  Level Chicago Center
Thu 11:12:08 PM 42.0750 -87.6797 238° Southwest 433 498 34,000  Level Chicago Center
Thu 11:13:10 PM 42.0081 -87.8153 236° Southwest 434 499 34,000  Level Chicago Center
Thu 11:14:11 PM 41.9428 -87.9503 237° Southwest 435 501 34,000  Level Chicago Center
Thu 11:15:13 PM 41.8764 -88.0869 237° Southwest 435 501 34,000  Level Chicago Center
Thu 11:16:14 PM 41.8083 -88.2275 237° Southwest 448 516 34,000  Level Chicago Center
Thu 11:17:16 PM 41.7261 -88.3950 237° Southwest 451 519 34,000  Level Chicago Center
Thu 11:18:17 PM 41.6572 -88.5347 237° Southwest 453 521 34,000  Level Chicago Center
Thu 11:19:19 PM 41.5872 -88.6742 236° Southwest 454 522 34,000  Level Chicago Center
Thu 11:20:20 PM 41.5164 -88.8164 236° Southwest 458 527 34,000  Level Chicago Center
Thu 11:21:22 PM 41.4456 -88.9572 236° Southwest 459 528 34,000  Level Chicago Center
Thu 11:22:23 PM 41.3742 -89.0986 236° Southwest 461 531 34,000  Level Chicago Center
Thu 11:23:24 PM 41.2961 -89.2547 236° Southwest 462 532 34,000  Level Chicago Center
Thu 11:24:26 PM 41.2242 -89.3961 236° Southwest 463 533 34,000  Level Chicago Center
Thu 11:25:27 PM 41.1522 -89.5383 236° Southwest 465 535 34,000  Level Chicago Center
Thu 11:26:28 PM 41.0803 -89.6792 236° Southwest 465 535 34,000  Level Chicago Center
Thu 11:27:30 PM 40.9947 -89.8492 236° Southwest 465 535 34,000  Level Chicago Center
Thu 11:28:31 PM 40.9272 -89.9794 236° Southwest 465 535 34,000  Level Chicago Center
Thu 11:29:32 PM 40.8542 -90.1200 236° Southwest 464 534 34,000  Level Chicago Center
Thu 11:30:34 PM 40.7772 -90.2669 235° Southwest 462 532 34,000  Level Chicago Center
Thu 11:31:35 PM 40.7036 -90.4075 235° Southwest 467 537 34,000  Level Chicago Center
Thu 11:32:36 PM 40.6292 -90.5486 235° Southwest 467 537 34,000  Level Chicago Center
Thu 11:33:38 PM 40.5408 -90.7153 235° Southwest 464 534 34,000  Level Chicago Center
Thu 11:34:39 PM 40.4650 -90.8564 235° Southwest 469 540 34,000  Level Chicago Center
Thu 11:35:11 PM 40.4328 -90.9131 233° Southwest 469 540 34,000  Level Kansas City Center
Thu 11:36:15 PM 40.3581 -91.0536 235° Southwest 469 540 34,000  Level Kansas City Center
Thu 11:37:13 PM 40.2833 -91.1928 235° Southwest 469 540 34,000  Level Kansas City Center
Thu 11:38:15 PM 40.1933 -91.3569 234° Southwest 469 540 34,000  Level Kansas City Center
Thu 11:39:18 PM 40.1189 -91.4944 235° Southwest 469 540 34,000  Level Kansas City Center
Thu 11:40:19 PM 40.0428 -91.6319 234° Southwest 469 540 34,000  Level Kansas City Center
Thu 11:41:19 PM 39.9703 -91.7681 235° Southwest 466 536 34,000  Level Kansas City Center
Thu 11:42:19 PM 39.8933 -91.9069 234° Southwest 468 539 34,000  Level Kansas City Center
Thu 11:43:20 PM 39.8167 -92.0450 234° Southwest 469 540 34,000  Level Kansas City Center
Thu 11:44:21 PM 39.7433 -92.1786 235° Southwest 461 531 34,000  Level Kansas City Center
Thu 11:45:24 PM 39.6667 -92.3150 234° Southwest 463 533 34,000  Level Kansas City Center
Thu 11:46:23 PM 39.5889 -92.4517 234° Southwest 468 539 34,000  Level Kansas City Center
Thu 11:47:27 PM 39.5133 -92.5900 235° Southwest 470 541 34,000  Level Kansas City Center
Thu 11:48:28 PM 39.4231 -92.7500 234° Southwest 469 540 34,000  Level Kansas City Center
Thu 11:49:29 PM 39.3472 -92.8856 234° Southwest 469 540 34,000  Level Kansas City Center
Thu 11:50:30 PM 39.2708 -93.0192 234° Southwest 468 539 34,000  Level Kansas City Center
Thu 11:51:31 PM 39.1947 -93.1519 234° Southwest 466 536 34,000  Level Kansas City Center
Thu 11:52:33 PM 39.1178 -93.2839 233° Southwest 466 536 34,000  Level Kansas City Center
Thu 11:53:33 PM 39.0328 -93.4275 233° Southwest 464 534 34,000  Level Kansas City Center
Thu 11:54:34 PM 38.9575 -93.5628 234° Southwest 459 528 34,000  Level Kansas City Center
Thu 11:55:34 PM 38.8797 -93.6953 233° Southwest 462 532 34,000  Level Kansas City Center
Thu 11:56:37 PM 38.8019 -93.8253 233° Southwest 463 533 34,000  Level Kansas City Center
Thu 11:57:38 PM 38.7247 -93.9567 233° Southwest 463 533 34,000  Level Kansas City Center
Thu 11:58:39 PM 38.6478 -94.0875 233° Southwest 462 532 34,000  Level Kansas City Center
Thu 11:59:40 PM 38.5697 -94.2189 233° Southwest 462 532 34,000  Level Kansas City Center
Fri 12:00:41 AM 38.4911 -94.3511 233° Southwest 462 532 34,000  Level Kansas City Center
Fri 12:01:42 AM 38.4125 -94.4822 233° Southwest 463 533 34,000  Level Kansas City Center
Fri 12:02:43 AM 38.3342 -94.6142 233° Southwest 464 534 34,000  Level Kansas City Center
Fri 12:03:44 AM 38.2544 -94.7453 232° Southwest 464 534 34,000  Level Kansas City Center
Fri 12:04:45 AM 38.1750 -94.8772 233° Southwest 465 535 34,000  Level Kansas City Center
Fri 12:05:46 AM 38.0947 -95.0103 233° Southwest 467 537 34,000  Level Kansas City Center
Fri 12:06:47 AM 37.9969 -95.1731 233° Southwest 480 552 34,000  Level Kansas City Center
Fri 12:07:48 AM 37.9142 -95.3100 233° Southwest 480 552 34,000  Level Kansas City Center
Fri 12:08:49 AM 37.8325 -95.4411 232° Southwest 478 550 34,000  Level Kansas City Center
Fri 12:09:50 AM 37.7511 -95.5742 232° Southwest 478 550 34,000  Level Kansas City Center
Fri 12:10:50 AM 37.6694 -95.7089 233° Southwest 478 550 34,000  Level Kansas City Center
Fri 12:11:51 AM 37.5869 -95.8392 231° Southwest 478 550 34,000  Level Kansas City Center
Fri 12:12:53 AM 37.5058 -95.9700 232° Southwest 478 550 34,000  Level Kansas City Center
Fri 12:13:52 AM 37.4228 -96.1014 232° Southwest 478 550 34,000  Level Kansas City Center
Fri 12:14:55 AM 37.3394 -96.2325 231° Southwest 478 550 34,000  Level Kansas City Center
Fri 12:15:56 AM 37.2564 -96.3647 232° Southwest 479 551 34,000  Level Kansas City Center
Fri 12:16:57 AM 37.1622 -96.5117 231° Southwest 480 552 34,000  Level Kansas City Center
Fri 12:17:57 AM 37.0872 -96.6233 230° Southwest 480 552 34,000  Level Kansas City Center
Fri 12:18:59 AM 36.9731 -96.7131 212° Southwest 486 559 34,000  Level Kansas City Center
Fri 12:20:00 AM 36.8483 -96.7831 204° Southwest 490 564 34,000 -1,240 Level Kansas City Center
Fri 12:21:00 AM 36.7019 -96.8656 204° Southwest 484 557 31,500 -2,727 Descending Kansas City Center
Fri 12:22:01 AM 36.5814 -96.9336 204° Southwest 483 556 28,500 -2,803 Descending Kansas City Center
Fri 12:23:02 AM 36.4742 -96.9939 204° Southwest 482 555 25,800 -2,803 Descending Kansas City Center
Fri 12:24:03 AM 36.3597 -97.0592 205° Southwest 462 532 22,800 -3,025 Descending Kansas City Center
Fri 12:25:01 AM 36.2467 -97.1228 204° Southwest 452 520 19,800 -2,975 Descending Kansas City Center
Fri 12:26:04 AM 36.1369 -97.1817 203° Southwest 438 504 16,800 -3,032 Descending Kansas City Center
Fri 12:26:36 AM 36.0742 -97.2186 205° Southwest 425 489 15,000 -3,097 Descending Fort Worth Center
Fri 12:27:37 AM 35.9742 -97.2731 204° Southwest 398 458 12,000 -1,967 Descending Fort Worth Center
Fri 12:28:38 AM 35.8789 -97.3578 216° Southwest 344 396 11,000 -1,082 Descending Fort Worth Center
Fri 12:29:39 AM 35.8142 -97.4181 217° Southwest 303 349 9,800 -1,438 Descending Fort Worth Center
Fri 12:30:39 AM 35.7497 -97.4797 218° Southwest 285 328 8,100 -1,686 Descending Fort Worth Center
Fri 12:31:40 AM 35.6856 -97.5272 211° Southwest 278 320 6,400 -1,366 Descending Fort Worth Center
Fri 12:32:42 AM 35.6133 -97.5631 202° Southwest 259 298 5,300 -1,046 Descending Fort Worth Center
Fri 12:33:29 AM 35.5706 -97.5883 206° Southwest 216 249 4,500 -1,180 Descending Fort Worth Center
Fri 12:33:43 AM 35.5583 -97.5928 196° South 219 252 4,100 -1,075 Descending Fort Worth Center
Fri 12:34:36 AM 35.5178 -97.6053 194° South 180 207 3,300 -842 Descending Fort Worth Center
Fri 12:35:37 AM 35.4672 -97.6061 181° South 160 184 2,500 -744 Descending Fort Worth Center
Fri 12:36:37 AM 35.4314 -97.6072 181° South 126 145 1,800 -700 Descending Fort Worth Center
Fri 12:39:00 AM 35.3931 -97.6008 199° South  Level Estimated

Login

Don't have an account? Register now (free) for customized features, flight alerts, and more!